sensor_id;sensor_type;location;lat;lon;timestamp;pressure;altitude;pressure_sealevel;temperature;humidity
61898;BME280;47850;50.274;18.908;2022-09-09T00:02:08;97814.79;;;15.81;100.00
61898;BME280;47850;50.274;18.908;2022-09-09T00:04:41;97814.66;;;15.78;100.00
61898;BME280;47850;50.274;18.908;2022-09-09T00:15:41;97810.26;;;15.77;100.00
61898;BME280;47850;50.274;18.908;2022-09-09T00:18:21;97809.64;;;15.74;100.00
61898;BME280;47850;50.274;18.908;2022-09-09T00:23:27;97815.00;;;15.72;100.00
61898;BME280;47850;50.274;18.908;2022-09-09T00:26:21;97815.95;;;15.72;100.00
61898;BME280;47850;50.274;18.908;2022-09-09T00:31:28;97813.08;;;15.73;100.00
61898;BME280;47850;50.274;18.908;2022-09-09T00:34:00;97814.63;;;15.73;100.00
61898;BME280;47850;50.274;18.908;2022-09-09T00:36:29;97816.33;;;15.71;100.00
61898;BME280;47850;50.274;18.908;2022-09-09T00:39:03;97814.91;;;15.71;100.00
61898;BME280;47850;50.274;18.908;2022-09-09T00:41:40;97812.37;;;15.70;100.00
61898;BME280;47850;50.274;18.908;2022-09-09T00:46:57;97814.02;;;15.66;100.00
61898;BME280;47850;50.274;18.908;2022-09-09T00:57:46;97826.82;;;15.54;100.00
61898;BME280;47850;50.274;18.908;2022-09-09T01:00:40;97830.75;;;15.51;100.00
61898;BME280;47850;50.274;18.908;2022-09-09T01:03:21;97833.13;;;15.47;100.00
61898;BME280;47850;50.274;18.908;2022-09-09T01:11:26;97838.50;;;15.46;100.00
61898;BME280;47850;50.274;18.908;2022-09-09T01:14:18;97844.70;;;15.45;100.00
61898;BME280;47850;50.274;18.908;2022-09-09T01:16:54;97842.23;;;15.44;100.00
61898;BME280;47850;50.274;18.908;2022-09-09T01:19:32;97847.02;;;15.44;100.00
61898;BME280;47850;50.274;18.908;2022-09-09T01:22:06;97847.05;;;15.42;100.00
61898;BME280;47850;50.274;18.908;2022-09-09T01:24:42;97850.77;;;15.40;100.00
61898;BME280;47850;50.274;18.908;2022-09-09T01:27:14;97849.45;;;15.37;100.00
61898;BME280;47850;50.274;18.908;2022-09-09T01:29:42;97852.67;;;15.33;100.00
61898;BME280;47850;50.274;18.908;2022-09-09T01:32:40;97856.30;;;15.31;100.00
61898;BME280;47850;50.274;18.908;2022-09-09T01:37:46;97863.90;;;15.26;100.00
61898;BME280;47850;50.274;18.908;2022-09-09T01:40:12;97863.08;;;15.25;100.00
61898;BME280;47850;50.274;18.908;2022-09-09T01:42:37;97861.69;;;15.22;100.00
61898;BME280;47850;50.274;18.908;2022-09-09T01:45:04;97860.52;;;15.19;100.00
61898;BME280;47850;50.274;18.908;2022-09-09T01:47:30;97864.55;;;15.16;100.00
61898;BME280;47850;50.274;18.908;2022-09-09T01:49:56;97865.83;;;15.14;100.00
61898;BME280;47850;50.274;18.908;2022-09-09T01:52:22;97870.63;;;15.11;100.00
61898;BME280;47850;50.274;18.908;2022-09-09T01:54:48;97868.95;;;15.10;100.00
61898;BME280;47850;50.274;18.908;2022-09-09T01:57:34;97867.58;;;15.09;100.00
61898;BME280;47850;50.274;18.908;2022-09-09T02:00:13;97868.04;;;15.08;100.00
61898;BME280;47850;50.274;18.908;2022-09-09T02:05:27;97867.67;;;15.02;100.00
61898;BME280;47850;50.274;18.908;2022-09-09T02:08:06;97869.58;;;15.00;100.00
61898;BME280;47850;50.274;18.908;2022-09-09T02:10:46;97870.61;;;14.97;100.00
61898;BME280;47850;50.274;18.908;2022-09-09T02:13:16;97868.30;;;14.95;100.00
61898;BME280;47850;50.274;18.908;2022-09-09T02:15:53;97870.19;;;14.93;100.00
61898;BME280;47850;50.274;18.908;2022-09-09T02:18:26;97878.14;;;14.91;100.00
61898;BME280;47850;50.274;18.908;2022-09-09T02:20:53;97880.58;;;14.88;100.00
61898;BME280;47850;50.274;18.908;2022-09-09T02:23:20;97878.46;;;14.85;100.00
61898;BME280;47850;50.274;18.908;2022-09-09T02:25:47;97883.16;;;14.80;100.00
61898;BME280;47850;50.274;18.908;2022-09-09T02:28:15;97884.08;;;14.77;100.00
61898;BME280;47850;50.274;18.908;2022-09-09T02:30:44;97887.66;;;14.72;100.00
61898;BME280;47850;50.274;18.908;2022-09-09T02:33:14;97890.80;;;14.66;100.00
61898;BME280;47850;50.274;18.908;2022-09-09T02:35:41;97895.75;;;14.62;100.00
61898;BME280;47850;50.274;18.908;2022-09-09T02:38:12;97898.31;;;14.58;100.00
61898;BME280;47850;50.274;18.908;2022-09-09T02:40:39;97899.81;;;14.55;100.00
61898;BME280;47850;50.274;18.908;2022-09-09T02:43:05;97899.48;;;14.51;100.00
61898;BME280;47850;50.274;18.908;2022-09-09T02:45:51;97890.90;;;14.47;100.00
61898;BME280;47850;50.274;18.908;2022-09-09T02:54:04;97899.98;;;14.35;100.00
61898;BME280;47850;50.274;18.908;2022-09-09T02:56:40;97901.79;;;14.32;100.00
61898;BME280;47850;50.274;18.908;2022-09-09T02:59:07;97902.65;;;14.29;100.00
61898;BME280;47850;50.274;18.908;2022-09-09T03:01:33;97901.63;;;14.25;100.00
61898;BME280;47850;50.274;18.908;2022-09-09T03:04:02;97902.01;;;14.22;100.00
61898;BME280;47850;50.274;18.908;2022-09-09T03:06:31;97901.92;;;14.19;100.00
61898;BME280;47850;50.274;18.908;2022-09-09T03:08:56;97903.79;;;14.15;100.00
61898;BME280;47850;50.274;18.908;2022-09-09T03:11:26;97905.73;;;14.13;100.00
61898;BME280;47850;50.274;18.908;2022-09-09T03:13:54;97906.26;;;14.11;100.00
61898;BME280;47850;50.274;18.908;2022-09-09T03:16:24;97910.48;;;14.09;100.00
61898;BME280;47850;50.274;18.908;2022-09-09T03:18:50;97913.52;;;14.06;100.00
61898;BME280;47850;50.274;18.908;2022-09-09T03:21:16;97911.13;;;14.03;100.00
61898;BME280;47850;50.274;18.908;2022-09-09T03:23:42;97915.34;;;14.03;100.00
61898;BME280;47850;50.274;18.908;2022-09-09T03:26:08;97917.16;;;14.01;100.00
61898;BME280;47850;50.274;18.908;2022-09-09T03:28:34;97914.72;;;14.00;100.00
61898;BME280;47850;50.274;18.908;2022-09-09T03:31:04;97918.40;;;14.00;100.00
61898;BME280;47850;50.274;18.908;2022-09-09T03:33:31;97921.09;;;13.98;100.00
61898;BME280;47850;50.274;18.908;2022-09-09T03:35:57;97924.16;;;13.96;100.00
61898;BME280;47850;50.274;18.908;2022-09-09T03:38:24;97926.64;;;13.93;100.00
61898;BME280;47850;50.274;18.908;2022-09-09T03:40:51;97928.41;;;13.91;100.00
61898;BME280;47850;50.274;18.908;2022-09-09T03:43:25;97932.84;;;13.90;100.00
61898;BME280;47850;50.274;18.908;2022-09-09T03:45:51;97935.76;;;13.88;100.00
61898;BME280;47850;50.274;18.908;2022-09-09T03:48:18;97934.39;;;13.84;100.00
61898;BME280;47850;50.274;18.908;2022-09-09T03:50:51;97938.56;;;13.82;100.00
61898;BME280;47850;50.274;18.908;2022-09-09T03:53:20;97940.53;;;13.80;100.00
61898;BME280;47850;50.274;18.908;2022-09-09T03:55:51;97938.80;;;13.77;100.00
61898;BME280;47850;50.274;18.908;2022-09-09T03:58:22;97937.78;;;13.74;100.00
61898;BME280;47850;50.274;18.908;2022-09-09T04:01:04;97939.50;;;13.71;100.00
61898;BME280;47850;50.274;18.908;2022-09-09T04:03:31;97941.35;;;13.68;100.00
61898;BME280;47850;50.274;18.908;2022-09-09T04:05:58;97939.38;;;13.65;100.00
61898;BME280;47850;50.274;18.908;2022-09-09T04:08:25;97940.09;;;13.62;100.00
61898;BME280;47850;50.274;18.908;2022-09-09T04:10:52;97937.37;;;13.61;100.00
61898;BME280;47850;50.274;18.908;2022-09-09T04:13:19;97940.10;;;13.57;100.00
61898;BME280;47850;50.274;18.908;2022-09-09T04:15:57;97939.64;;;13.55;100.00
61898;BME280;47850;50.274;18.908;2022-09-09T04:18:24;97938.66;;;13.54;100.00
61898;BME280;47850;50.274;18.908;2022-09-09T04:20:52;97938.08;;;13.52;100.00
61898;BME280;47850;50.274;18.908;2022-09-09T04:23:19;97939.55;;;13.52;100.00
61898;BME280;47850;50.274;18.908;2022-09-09T04:25:51;97944.79;;;13.52;100.00
61898;BME280;47850;50.274;18.908;2022-09-09T04:28:19;97950.28;;;13.52;100.00
61898;BME280;47850;50.274;18.908;2022-09-09T04:30:46;97946.47;;;13.53;100.00
61898;BME280;47850;50.274;18.908;2022-09-09T04:33:13;97950.19;;;13.54;100.00
61898;BME280;47850;50.274;18.908;2022-09-09T04:35:43;97946.38;;;13.55;100.00
61898;BME280;47850;50.274;18.908;2022-09-09T04:38:09;97943.90;;;13.56;100.00
61898;BME280;47850;50.274;18.908;2022-09-09T04:40:35;97945.92;;;13.56;100.00
61898;BME280;47850;50.274;18.908;2022-09-09T04:43:02;97945.89;;;13.57;100.00
61898;BME280;47850;50.274;18.908;2022-09-09T04:45:31;97945.01;;;13.59;100.00
61898;BME280;47850;50.274;18.908;2022-09-09T04:47:58;97942.05;;;13.60;100.00
61898;BME280;47850;50.274;18.908;2022-09-09T04:50:23;97949.56;;;13.62;100.00
61898;BME280;47850;50.274;18.908;2022-09-09T04:52:50;97955.29;;;13.65;100.00
61898;BME280;47850;50.274;18.908;2022-09-09T04:55:16;97953.06;;;13.67;100.00
61898;BME280;47850;50.274;18.908;2022-09-09T04:57:42;97956.11;;;13.69;100.00
61898;BME280;47850;50.274;18.908;2022-09-09T05:00:09;97959.30;;;13.71;100.00
61898;BME280;47850;50.274;18.908;2022-09-09T05:02:39;97958.67;;;13.74;100.00
61898;BME280;47850;50.274;18.908;2022-09-09T05:05:06;97960.30;;;13.76;100.00
61898;BME280;47850;50.274;18.908;2022-09-09T05:07:32;97959.98;;;13.78;100.00
61898;BME280;47850;50.274;18.908;2022-09-09T05:09:58;97960.13;;;13.80;100.00
61898;BME280;47850;50.274;18.908;2022-09-09T05:12:24;97960.45;;;13.84;100.00
61898;BME280;47850;50.274;18.908;2022-09-09T05:14:52;97965.90;;;13.87;100.00
61898;BME280;47850;50.274;18.908;2022-09-09T05:17:18;97966.67;;;13.90;100.00
61898;BME280;47850;50.274;18.908;2022-09-09T05:19:44;97972.09;;;13.93;100.00
61898;BME280;47850;50.274;18.908;2022-09-09T05:22:10;97974.18;;;13.95;100.00
61898;BME280;47850;50.274;18.908;2022-09-09T05:24:37;97977.01;;;13.98;100.00
61898;BME280;47850;50.274;18.908;2022-09-09T05:27:04;97980.86;;;14.01;100.00
61898;BME280;47850;50.274;18.908;2022-09-09T05:29:32;97986.92;;;14.05;100.00
61898;BME280;47850;50.274;18.908;2022-09-09T05:32:01;97982.55;;;14.09;100.00
61898;BME280;47850;50.274;18.908;2022-09-09T05:34:27;97987.81;;;14.11;100.00
61898;BME280;47850;50.274;18.908;2022-09-09T05:36:53;97986.54;;;14.13;100.00
61898;BME280;47850;50.274;18.908;2022-09-09T05:39:19;97983.70;;;14.15;100.00
61898;BME280;47850;50.274;18.908;2022-09-09T05:41:45;97982.37;;;14.18;100.00
61898;BME280;47850;50.274;18.908;2022-09-09T05:44:11;97986.29;;;14.21;100.00
61898;BME280;47850;50.274;18.908;2022-09-09T05:46:37;97984.71;;;14.24;100.00
61898;BME280;47850;50.274;18.908;2022-09-09T05:49:03;97987.39;;;14.27;100.00
61898;BME280;47850;50.274;18.908;2022-09-09T05:51:31;97988.44;;;14.31;100.00
61898;BME280;47850;50.274;18.908;2022-09-09T05:53:57;97989.39;;;14.34;100.00
61898;BME280;47850;50.274;18.908;2022-09-09T05:56:28;97994.36;;;14.38;100.00
61898;BME280;47850;50.274;18.908;2022-09-09T05:58:55;97994.38;;;14.41;100.00
61898;BME280;47850;50.274;18.908;2022-09-09T06:01:24;97997.95;;;14.46;100.00
61898;BME280;47850;50.274;18.908;2022-09-09T06:03:50;97993.98;;;14.49;100.00
61898;BME280;47850;50.274;18.908;2022-09-09T06:06:20;97993.38;;;14.54;100.00
61898;BME280;47850;50.274;18.908;2022-09-09T06:08:48;97994.23;;;14.59;100.00
61898;BME280;47850;50.274;18.908;2022-09-09T06:11:21;97989.52;;;14.64;100.00
61898;BME280;47850;50.274;18.908;2022-09-09T06:13:48;97991.48;;;14.70;100.00
61898;BME280;47850;50.274;18.908;2022-09-09T06:16:18;97990.67;;;14.74;100.00
61898;BME280;47850;50.274;18.908;2022-09-09T06:18:45;97991.43;;;14.79;100.00
61898;BME280;47850;50.274;18.908;2022-09-09T06:21:21;97995.16;;;14.87;100.00
61898;BME280;47850;50.274;18.908;2022-09-09T06:23:49;97994.47;;;14.94;100.00
61898;BME280;47850;50.274;18.908;2022-09-09T06:26:19;97995.18;;;15.00;100.00
61898;BME280;47850;50.274;18.908;2022-09-09T06:28:47;98000.75;;;15.06;100.00
61898;BME280;47850;50.274;18.908;2022-09-09T06:31:15;98001.13;;;15.12;100.00
61898;BME280;47850;50.274;18.908;2022-09-09T06:33:48;98002.25;;;15.16;100.00
61898;BME280;47850;50.274;18.908;2022-09-09T06:36:20;98003.40;;;15.21;100.00
61898;BME280;47850;50.274;18.908;2022-09-09T06:38:47;98006.98;;;15.27;100.00
61898;BME280;47850;50.274;18.908;2022-09-09T06:41:15;98006.04;;;15.33;100.00
61898;BME280;47850;50.274;18.908;2022-09-09T06:43:41;98003.66;;;15.39;100.00
61898;BME280;47850;50.274;18.908;2022-09-09T06:46:12;97995.35;;;15.45;100.00
61898;BME280;47850;50.274;18.908;2022-09-09T06:48:39;97998.30;;;15.54;100.00
61898;BME280;47850;50.274;18.908;2022-09-09T06:53:38;98000.38;;;15.66;100.00
61898;BME280;47850;50.274;18.908;2022-09-09T06:58:39;97998.98;;;15.80;100.00
61898;BME280;47850;50.274;18.908;2022-09-09T07:01:12;97998.27;;;15.86;100.00
61898;BME280;47850;50.274;18.908;2022-09-09T07:03:42;97996.73;;;15.91;100.00
61898;BME280;47850;50.274;18.908;2022-09-09T07:06:15;97992.77;;;15.97;99.84
61898;BME280;47850;50.274;18.908;2022-09-09T07:08:43;97990.31;;;15.99;98.96
61898;BME280;47850;50.274;18.908;2022-09-09T07:11:09;97984.57;;;16.03;98.97
61898;BME280;47850;50.274;18.908;2022-09-09T07:13:36;97986.80;;;16.08;98.81
61898;BME280;47850;50.274;18.908;2022-09-09T07:16:08;97987.02;;;16.12;97.36
61898;BME280;47850;50.274;18.908;2022-09-09T07:18:34;97990.81;;;16.16;96.24
61898;BME280;47850;50.274;18.908;2022-09-09T07:21:02;97987.78;;;16.21;95.90
61898;BME280;47850;50.274;18.908;2022-09-09T07:23:29;97985.09;;;16.28;95.93
61898;BME280;47850;50.274;18.908;2022-09-09T07:25:56;97982.42;;;16.36;96.34
61898;BME280;47850;50.274;18.908;2022-09-09T07:28:24;97976.28;;;16.44;95.37
61898;BME280;47850;50.274;18.908;2022-09-09T07:31:01;97977.89;;;16.50;94.75
61898;BME280;47850;50.274;18.908;2022-09-09T07:33:29;97979.81;;;16.56;93.66
61898;BME280;47850;50.274;18.908;2022-09-09T07:36:07;97978.66;;;16.61;92.47
61898;BME280;47850;50.274;18.908;2022-09-09T07:38:39;97977.36;;;16.67;92.30
61898;BME280;47850;50.274;18.908;2022-09-09T07:41:07;97982.06;;;16.74;91.95
61898;BME280;47850;50.274;18.908;2022-09-09T07:43:39;97982.76;;;16.83;91.48
61898;BME280;47850;50.274;18.908;2022-09-09T07:46:06;97982.42;;;16.94;91.56
61898;BME280;47850;50.274;18.908;2022-09-09T07:48:32;97989.98;;;17.03;90.48
61898;BME280;47850;50.274;18.908;2022-09-09T07:51:10;97991.63;;;17.16;90.14
61898;BME280;47850;50.274;18.908;2022-09-09T07:53:38;97999.52;;;17.31;90.24
61898;BME280;47850;50.274;18.908;2022-09-09T07:56:09;98000.59;;;17.45;90.30
61898;BME280;47850;50.274;18.908;2022-09-09T07:58:37;98003.59;;;17.60;89.47
61898;BME280;47850;50.274;18.908;2022-09-09T08:01:19;98006.41;;;17.80;89.12
61898;BME280;47850;50.274;18.908;2022-09-09T08:03:46;98006.62;;;18.04;88.39
61898;BME280;47850;50.274;18.908;2022-09-09T08:06:13;98009.77;;;18.23;86.70
61898;BME280;47850;50.274;18.908;2022-09-09T08:08:40;98010.53;;;18.39;84.84
61898;BME280;47850;50.274;18.908;2022-09-09T08:11:10;98008.50;;;18.54;83.31
61898;BME280;47850;50.274;18.908;2022-09-09T08:13:38;98008.56;;;18.67;82.42
61898;BME280;47850;50.274;18.908;2022-09-09T08:16:08;98009.08;;;18.77;81.68
61898;BME280;47850;50.274;18.908;2022-09-09T08:18:35;98010.67;;;18.86;81.71
61898;BME280;47850;50.274;18.908;2022-09-09T08:21:37;98013.23;;;19.02;81.62
61898;BME280;47850;50.274;18.908;2022-09-09T08:24:06;98012.92;;;19.20;80.78
61898;BME280;47850;50.274;18.908;2022-09-09T08:26:36;98009.30;;;19.30;80.18
61898;BME280;47850;50.274;18.908;2022-09-09T08:29:04;98009.33;;;19.42;79.30
61898;BME280;47850;50.274;18.908;2022-09-09T08:31:36;98012.83;;;19.58;79.05
61898;BME280;47850;50.274;18.908;2022-09-09T08:34:04;98011.86;;;19.74;78.57
61898;BME280;47850;50.274;18.908;2022-09-09T08:36:33;98012.62;;;19.89;77.79
61898;BME280;47850;50.274;18.908;2022-09-09T08:39:00;98013.72;;;20.02;77.35
61898;BME280;47850;50.274;18.908;2022-09-09T08:47:39;98012.64;;;20.22;75.27
61898;BME280;47850;50.274;18.908;2022-09-09T08:50:34;98019.42;;;20.35;74.26
61898;BME280;47850;50.274;18.908;2022-09-09T08:58:19;98016.33;;;20.92;73.26
61898;BME280;47850;50.274;18.908;2022-09-09T09:01:09;98016.66;;;21.07;72.42
61898;BME280;47850;50.274;18.908;2022-09-09T09:11:24;98012.45;;;21.08;69.97
61898;BME280;47850;50.274;18.908;2022-09-09T09:13:57;98015.23;;;21.10;69.57
61898;BME280;47850;50.274;18.908;2022-09-09T09:16:34;98011.67;;;21.09;69.45
61898;BME280;47850;50.274;18.908;2022-09-09T09:19:04;98014.06;;;21.14;68.25
61898;BME280;47850;50.274;18.908;2022-09-09T09:24:58;98009.48;;;21.33;68.01
61898;BME280;47850;50.274;18.908;2022-09-09T09:27:36;98009.41;;;21.40;67.33
61898;BME280;47850;50.274;18.908;2022-09-09T09:30:15;98010.91;;;21.46;67.48
61898;BME280;47850;50.274;18.908;2022-09-09T09:32:59;98005.67;;;21.54;66.49
61898;BME280;47850;50.274;18.908;2022-09-09T09:35:26;98002.52;;;21.60;66.55
61898;BME280;47850;50.274;18.908;2022-09-09T09:37:52;98005.46;;;21.63;65.54
61898;BME280;47850;50.274;18.908;2022-09-09T09:40:21;98001.27;;;21.65;65.44
61898;BME280;47850;50.274;18.908;2022-09-09T09:48:11;98007.50;;;21.83;65.74
61898;BME280;47850;50.274;18.908;2022-09-09T09:53:27;97998.48;;;22.08;65.72
61898;BME280;47850;50.274;18.908;2022-09-09T09:55:59;98006.52;;;22.27;65.25
61898;BME280;47850;50.274;18.908;2022-09-09T09:58:28;98009.90;;;22.35;62.30
61898;BME280;47850;50.274;18.908;2022-09-09T10:00:57;98015.38;;;22.39;61.57
61898;BME280;47850;50.274;18.908;2022-09-09T10:03:28;98011.10;;;22.41;60.85
61898;BME280;47850;50.274;18.908;2022-09-09T10:05:54;98002.50;;;22.47;60.23
61898;BME280;47850;50.274;18.908;2022-09-09T10:08:26;98000.14;;;22.45;60.24
61898;BME280;47850;50.274;18.908;2022-09-09T10:13:57;98002.23;;;22.69;60.00
61898;BME280;47850;50.274;18.908;2022-09-09T10:17:06;98007.64;;;22.83;58.72
61898;BME280;47850;50.274;18.908;2022-09-09T10:19:37;98011.67;;;22.71;58.64
61898;BME280;47850;50.274;18.908;2022-09-09T10:36:23;98034.32;;;22.52;59.55
61898;BME280;47850;50.274;18.908;2022-09-09T10:52:21;98032.39;;;23.03;56.29
61898;BME280;47850;50.274;18.908;2022-09-09T10:57:40;98034.31;;;23.31;56.69
61898;BME280;47850;50.274;18.908;2022-09-09T11:02:43;98030.13;;;23.84;54.15
61898;BME280;47850;50.274;18.908;2022-09-09T11:05:46;98028.68;;;23.77;50.20
61898;BME280;47850;50.274;18.908;2022-09-09T11:08:26;98027.70;;;23.51;50.51
61898;BME280;47850;50.274;18.908;2022-09-09T11:14:14;98034.70;;;23.18;52.93
61898;BME280;47850;50.274;18.908;2022-09-09T11:16:57;98028.45;;;23.27;55.19
61898;BME280;47850;50.274;18.908;2022-09-09T11:22:02;98028.69;;;23.67;52.87
61898;BME280;47850;50.274;18.908;2022-09-09T11:24:40;98029.05;;;24.07;51.95
61898;BME280;47850;50.274;18.908;2022-09-09T11:30:05;98033.55;;;24.93;49.89
61898;BME280;47850;50.274;18.908;2022-09-09T11:33:08;98035.10;;;25.18;45.40
61898;BME280;47850;50.274;18.908;2022-09-09T11:38:46;98029.12;;;25.29;45.70
61898;BME280;47850;50.274;18.908;2022-09-09T11:41:14;98031.48;;;25.53;46.59
61898;BME280;47850;50.274;18.908;2022-09-09T11:43:47;98030.12;;;25.82;44.88
61898;BME280;47850;50.274;18.908;2022-09-09T11:46:16;98029.52;;;26.25;45.32
61898;BME280;47850;50.274;18.908;2022-09-09T11:48:46;98023.61;;;26.77;45.02
61898;BME280;47850;50.274;18.908;2022-09-09T11:56:25;98014.36;;;28.14;40.32
61898;BME280;47850;50.274;18.908;2022-09-09T11:59:19;98018.35;;;28.26;40.05
61898;BME280;47850;50.274;18.908;2022-09-09T12:01:50;98018.59;;;28.38;39.69
61898;BME280;47850;50.274;18.908;2022-09-09T12:06:53;98020.09;;;28.24;38.84
61898;BME280;47850;50.274;18.908;2022-09-09T12:14:38;98016.00;;;28.24;38.52
61898;BME280;47850;50.274;18.908;2022-09-09T12:19:40;98016.30;;;28.28;37.50
61898;BME280;47850;50.274;18.908;2022-09-09T12:25:26;98016.09;;;27.99;38.17
61898;BME280;47850;50.274;18.908;2022-09-09T12:30:40;98021.00;;;28.29;38.53
61898;BME280;47850;50.274;18.908;2022-09-09T12:33:16;98023.98;;;28.54;36.49
61898;BME280;47850;50.274;18.908;2022-09-09T12:35:44;98021.40;;;28.69;36.64
61898;BME280;47850;50.274;18.908;2022-09-09T12:38:36;98022.80;;;28.87;36.22
61898;BME280;47850;50.274;18.908;2022-09-09T12:41:03;98023.95;;;29.02;35.56
61898;BME280;47850;50.274;18.908;2022-09-09T12:43:29;98026.90;;;29.08;36.25
61898;BME280;47850;50.274;18.908;2022-09-09T12:46:01;98027.15;;;29.29;35.42
61898;BME280;47850;50.274;18.908;2022-09-09T12:48:36;98032.41;;;29.27;34.83
61898;BME280;47850;50.274;18.908;2022-09-09T12:51:05;98025.52;;;29.52;34.82
61898;BME280;47850;50.274;18.908;2022-09-09T12:53:34;98021.60;;;29.52;34.60
61898;BME280;47850;50.274;18.908;2022-09-09T12:56:05;98023.23;;;29.47;35.06
61898;BME280;47850;50.274;18.908;2022-09-09T12:58:33;98019.66;;;29.53;34.14
61898;BME280;47850;50.274;18.908;2022-09-09T13:01:04;98019.77;;;29.42;33.35
61898;BME280;47850;50.274;18.908;2022-09-09T13:03:32;98017.40;;;29.25;33.37
61898;BME280;47850;50.274;18.908;2022-09-09T13:06:11;98019.28;;;29.15;33.49
61898;BME280;47850;50.274;18.908;2022-09-09T13:08:37;98013.41;;;29.47;33.25
61898;BME280;47850;50.274;18.908;2022-09-09T13:11:13;98011.61;;;29.96;32.99
61898;BME280;47850;50.274;18.908;2022-09-09T13:13:42;98009.30;;;30.22;32.93
61898;BME280;47850;50.274;18.908;2022-09-09T13:16:25;98008.65;;;30.53;33.29
61898;BME280;47850;50.274;18.908;2022-09-09T13:18:52;98002.71;;;30.73;31.73
61898;BME280;47850;50.274;18.908;2022-09-09T13:21:19;97998.65;;;30.51;31.90
61898;BME280;47850;50.274;18.908;2022-09-09T13:23:50;97990.73;;;30.31;32.29
61898;BME280;47850;50.274;18.908;2022-09-09T13:28:48;97986.56;;;29.16;33.45
61898;BME280;47850;50.274;18.908;2022-09-09T13:31:23;97992.44;;;28.73;32.98
61898;BME280;47850;50.274;18.908;2022-09-09T13:33:49;97986.36;;;28.44;33.52
61898;BME280;47850;50.274;18.908;2022-09-09T13:36:15;97983.05;;;28.20;33.65
61898;BME280;47850;50.274;18.908;2022-09-09T13:41:22;97976.14;;;27.56;35.10
61898;BME280;47850;50.274;18.908;2022-09-09T13:43:50;97970.88;;;27.19;35.37
61898;BME280;47850;50.274;18.908;2022-09-09T13:46:37;97972.89;;;26.94;36.37
61898;BME280;47850;50.274;18.908;2022-09-09T13:54:01;97960.42;;;26.94;37.14
61898;BME280;47850;50.274;18.908;2022-09-09T13:56:27;97957.09;;;27.07;37.22
61898;BME280;47850;50.274;18.908;2022-09-09T13:58:53;97955.92;;;27.12;37.27
61898;BME280;47850;50.274;18.908;2022-09-09T14:01:19;97953.25;;;27.00;37.01
61898;BME280;47850;50.274;18.908;2022-09-09T14:03:45;97954.29;;;26.71;36.58
61898;BME280;47850;50.274;18.908;2022-09-09T14:06:12;97952.89;;;26.50;36.76
61898;BME280;47850;50.274;18.908;2022-09-09T14:08:38;97947.71;;;26.38;36.49
61898;BME280;47850;50.274;18.908;2022-09-09T14:11:07;97949.55;;;26.35;36.75
61898;BME280;47850;50.274;18.908;2022-09-09T14:13:36;97945.41;;;26.42;37.53
61898;BME280;47850;50.274;18.908;2022-09-09T14:16:03;97944.58;;;26.58;37.01
61898;BME280;47850;50.274;18.908;2022-09-09T14:18:29;97940.63;;;26.82;36.56
61898;BME280;47850;50.274;18.908;2022-09-09T14:20:54;97944.73;;;27.22;36.15
61898;BME280;47850;50.274;18.908;2022-09-09T14:23:20;97946.14;;;27.43;35.37
61898;BME280;47850;50.274;18.908;2022-09-09T14:25:47;97944.75;;;27.41;35.50
61898;BME280;47850;50.274;18.908;2022-09-09T14:28:14;97942.55;;;27.53;34.70
61898;BME280;47850;50.274;18.908;2022-09-09T14:30:43;97944.46;;;27.68;34.56
61898;BME280;47850;50.274;18.908;2022-09-09T14:33:11;97943.15;;;27.76;34.73
61898;BME280;47850;50.274;18.908;2022-09-09T14:35:38;97940.30;;;28.01;34.34
61898;BME280;47850;50.274;18.908;2022-09-09T14:38:05;97942.46;;;28.27;33.42
61898;BME280;47850;50.274;18.908;2022-09-09T14:40:31;97944.20;;;28.56;33.17
61898;BME280;47850;50.274;18.908;2022-09-09T14:42:59;97942.77;;;28.83;32.77
61898;BME280;47850;50.274;18.908;2022-09-09T14:45:25;97940.47;;;28.92;32.74
61898;BME280;47850;50.274;18.908;2022-09-09T14:47:53;97939.77;;;28.67;33.35
61898;BME280;47850;50.274;18.908;2022-09-09T14:50:19;97940.45;;;28.57;32.52
61898;BME280;47850;50.274;18.908;2022-09-09T14:52:46;97939.40;;;28.53;32.63
61898;BME280;47850;50.274;18.908;2022-09-09T14:55:12;97936.77;;;28.90;32.10
61898;BME280;47850;50.274;18.908;2022-09-09T14:57:38;97931.39;;;29.34;31.39
61898;BME280;47850;50.274;18.908;2022-09-09T15:00:06;97931.83;;;29.77;31.17
61898;BME280;47850;50.274;18.908;2022-09-09T15:02:33;97932.00;;;29.93;30.90
61898;BME280;47850;50.274;18.908;2022-09-09T15:04:59;97933.73;;;29.68;30.40
61898;BME280;47850;50.274;18.908;2022-09-09T15:07:25;97930.15;;;29.34;31.26
61898;BME280;47850;50.274;18.908;2022-09-09T15:09:52;97928.52;;;29.02;32.59
61898;BME280;47850;50.274;18.908;2022-09-09T15:12:18;97939.75;;;28.79;33.99
61898;BME280;47850;50.274;18.908;2022-09-09T15:14:45;97940.31;;;28.57;33.16
61898;BME280;47850;50.274;18.908;2022-09-09T15:17:11;97939.89;;;28.16;32.99
61898;BME280;47850;50.274;18.908;2022-09-09T15:19:37;97937.09;;;27.65;33.57
61898;BME280;47850;50.274;18.908;2022-09-09T15:22:04;97944.57;;;27.28;34.59
61898;BME280;47850;50.274;18.908;2022-09-09T15:24:33;97943.52;;;26.89;36.30
61898;BME280;47850;50.274;18.908;2022-09-09T15:27:01;97947.79;;;26.53;36.70
61898;BME280;47850;50.274;18.908;2022-09-09T15:29:27;97939.60;;;26.21;37.27
61898;BME280;47850;50.274;18.908;2022-09-09T15:31:54;97939.95;;;25.86;37.85
61898;BME280;47850;50.274;18.908;2022-09-09T15:34:21;97936.51;;;25.52;37.73
61898;BME280;47850;50.274;18.908;2022-09-09T15:36:47;97940.55;;;25.19;40.28
61898;BME280;47850;50.274;18.908;2022-09-09T15:39:16;97938.19;;;24.91;41.89